sensor_id;sensor_type;location;lat;lon;timestamp;temperature;humidity
21582;DHT22;10952;50.836;4.348;2024-03-25T00:00:34;7.60;99.90
21582;DHT22;10952;50.836;4.348;2024-03-25T00:03:01;7.60;99.90
21582;DHT22;10952;50.836;4.348;2024-03-25T00:05:30;7.60;99.90
21582;DHT22;10952;50.836;4.348;2024-03-25T00:07:58;7.50;99.90
21582;DHT22;10952;50.836;4.348;2024-03-25T00:10:27;7.50;99.90
21582;DHT22;10952;50.836;4.348;2024-03-25T00:12:56;7.50;99.90
21582;DHT22;10952;50.836;4.348;2024-03-25T00:15:24;7.40;99.90
21582;DHT22;10952;50.836;4.348;2024-03-25T00:17:50;7.20;99.90
21582;DHT22;10952;50.836;4.348;2024-03-25T00:20:17;7.20;99.90
21582;DHT22;10952;50.836;4.348;2024-03-25T00:22:43;7.10;99.90
21582;DHT22;10952;50.836;4.348;2024-03-25T00:25:15;7.10;99.90
21582;DHT22;10952;50.836;4.348;2024-03-25T00:27:43;7.10;99.90
21582;DHT22;10952;50.836;4.348;2024-03-25T00:30:09;7.10;99.90
21582;DHT22;10952;50.836;4.348;2024-03-25T00:32:36;7.10;99.90
21582;DHT22;10952;50.836;4.348;2024-03-25T00:35:02;7.10;99.90
21582;DHT22;10952;50.836;4.348;2024-03-25T00:37:27;7.10;99.90
21582;DHT22;10952;50.836;4.348;2024-03-25T00:39:54;7.00;99.90
21582;DHT22;10952;50.836;4.348;2024-03-25T00:42:25;7.10;99.90
21582;DHT22;10952;50.836;4.348;2024-03-25T00:44:52;7.10;99.90
21582;DHT22;10952;50.836;4.348;2024-03-25T00:47:18;7.10;99.90
21582;DHT22;10952;50.836;4.348;2024-03-25T00:49:44;7.10;99.90
21582;DHT22;10952;50.836;4.348;2024-03-25T00:52:10;7.10;99.90
21582;DHT22;10952;50.836;4.348;2024-03-25T00:54:40;7.10;99.90
21582;DHT22;10952;50.836;4.348;2024-03-25T00:57:09;7.00;99.90
21582;DHT22;10952;50.836;4.348;2024-03-25T00:59:39;7.10;99.90
21582;DHT22;10952;50.836;4.348;2024-03-25T01:02:06;7.00;99.90
21582;DHT22;10952;50.836;4.348;2024-03-25T01:04:31;7.00;99.90
21582;DHT22;10952;50.836;4.348;2024-03-25T01:07:00;7.00;99.90
21582;DHT22;10952;50.836;4.348;2024-03-25T01:09:29;7.00;99.90
21582;DHT22;10952;50.836;4.348;2024-03-25T01:11:58;7.10;99.90
21582;DHT22;10952;50.836;4.348;2024-03-25T01:14:26;7.10;99.90
21582;DHT22;10952;50.836;4.348;2024-03-25T01:16:52;7.10;99.90
21582;DHT22;10952;50.836;4.348;2024-03-25T01:19:18;7.10;99.90
21582;DHT22;10952;50.836;4.348;2024-03-25T01:21:44;7.20;99.90
21582;DHT22;10952;50.836;4.348;2024-03-25T01:24:13;7.00;99.90
21582;DHT22;10952;50.836;4.348;2024-03-25T01:27:00;7.10;99.90
21582;DHT22;10952;50.836;4.348;2024-03-25T01:29:27;7.10;99.90
21582;DHT22;10952;50.836;4.348;2024-03-25T01:31:55;7.00;99.90
21582;DHT22;10952;50.836;4.348;2024-03-25T01:34:24;7.00;99.90
21582;DHT22;10952;50.836;4.348;2024-03-25T01:36:51;6.90;99.90
21582;DHT22;10952;50.836;4.348;2024-03-25T01:39:20;6.90;99.90
21582;DHT22;10952;50.836;4.348;2024-03-25T01:41:48;6.90;99.90
21582;DHT22;10952;50.836;4.348;2024-03-25T01:44:16;6.80;99.90
21582;DHT22;10952;50.836;4.348;2024-03-25T01:46:43;6.80;99.90
21582;DHT22;10952;50.836;4.348;2024-03-25T01:49:11;6.80;99.90
21582;DHT22;10952;50.836;4.348;2024-03-25T01:51:38;6.70;99.90
21582;DHT22;10952;50.836;4.348;2024-03-25T01:54:08;6.70;99.90
21582;DHT22;10952;50.836;4.348;2024-03-25T01:56:35;6.80;99.90
21582;DHT22;10952;50.836;4.348;2024-03-25T01:59:05;6.80;99.90
21582;DHT22;10952;50.836;4.348;2024-03-25T02:01:31;6.90;99.90
21582;DHT22;10952;50.836;4.348;2024-03-25T02:03:58;6.90;99.90
21582;DHT22;10952;50.836;4.348;2024-03-25T02:06:27;6.90;99.90
21582;DHT22;10952;50.836;4.348;2024-03-25T02:08:55;6.90;99.90
21582;DHT22;10952;50.836;4.348;2024-03-25T02:11:23;7.00;99.90
21582;DHT22;10952;50.836;4.348;2024-03-25T02:13:50;7.00;99.90
21582;DHT22;10952;50.836;4.348;2024-03-25T02:16:17;6.90;99.90
21582;DHT22;10952;50.836;4.348;2024-03-25T02:18:50;6.90;99.90
21582;DHT22;10952;50.836;4.348;2024-03-25T02:21:17;6.90;99.90
21582;DHT22;10952;50.836;4.348;2024-03-25T02:23:45;6.90;99.90
21582;DHT22;10952;50.836;4.348;2024-03-25T02:26:13;6.90;99.90
21582;DHT22;10952;50.836;4.348;2024-03-25T02:28:44;6.90;99.90
21582;DHT22;10952;50.836;4.348;2024-03-25T02:31:11;6.90;99.90
21582;DHT22;10952;50.836;4.348;2024-03-25T02:33:36;6.90;99.90
21582;DHT22;10952;50.836;4.348;2024-03-25T02:36:02;6.90;99.90
21582;DHT22;10952;50.836;4.348;2024-03-25T02:38:31;6.90;99.90
21582;DHT22;10952;50.836;4.348;2024-03-25T02:40:59;6.90;99.90
21582;DHT22;10952;50.836;4.348;2024-03-25T02:43:25;6.90;99.90
21582;DHT22;10952;50.836;4.348;2024-03-25T02:45:54;7.00;99.90
21582;DHT22;10952;50.836;4.348;2024-03-25T02:48:23;7.00;99.90
21582;DHT22;10952;50.836;4.348;2024-03-25T02:50:48;7.00;99.90
21582;DHT22;10952;50.836;4.348;2024-03-25T02:53:17;6.90;99.90
21582;DHT22;10952;50.836;4.348;2024-03-25T02:55:43;6.90;99.90
21582;DHT22;10952;50.836;4.348;2024-03-25T02:58:12;6.90;99.90
21582;DHT22;10952;50.836;4.348;2024-03-25T03:00:38;6.90;99.90
21582;DHT22;10952;50.836;4.348;2024-03-25T03:03:04;6.80;99.90
21582;DHT22;10952;50.836;4.348;2024-03-25T03:05:32;6.80;99.90
21582;DHT22;10952;50.836;4.348;2024-03-25T03:08:00;6.90;99.90
21582;DHT22;10952;50.836;4.348;2024-03-25T03:10:29;6.90;99.90
21582;DHT22;10952;50.836;4.348;2024-03-25T03:12:57;6.80;99.90
21582;DHT22;10952;50.836;4.348;2024-03-25T03:15:23;6.90;99.90
21582;DHT22;10952;50.836;4.348;2024-03-25T03:17:49;6.90;99.90
21582;DHT22;10952;50.836;4.348;2024-03-25T03:20:15;7.00;99.90
21582;DHT22;10952;50.836;4.348;2024-03-25T03:22:42;7.00;99.90
21582;DHT22;10952;50.836;4.348;2024-03-25T03:25:08;6.90;99.90
21582;DHT22;10952;50.836;4.348;2024-03-25T03:27:33;7.00;99.90
21582;DHT22;10952;50.836;4.348;2024-03-25T03:29:59;7.10;99.90
21582;DHT22;10952;50.836;4.348;2024-03-25T03:32:25;7.10;99.90
21582;DHT22;10952;50.836;4.348;2024-03-25T03:34:50;7.20;99.90
21582;DHT22;10952;50.836;4.348;2024-03-25T03:37:16;7.20;99.90
21582;DHT22;10952;50.836;4.348;2024-03-25T03:40:10;7.30;99.90
21582;DHT22;10952;50.836;4.348;2024-03-25T03:42:39;7.40;99.90
21582;DHT22;10952;50.836;4.348;2024-03-25T03:45:06;7.60;99.90
21582;DHT22;10952;50.836;4.348;2024-03-25T03:47:33;7.60;99.90
21582;DHT22;10952;50.836;4.348;2024-03-25T03:50:01;7.70;99.90
21582;DHT22;10952;50.836;4.348;2024-03-25T03:52:28;7.70;99.90
21582;DHT22;10952;50.836;4.348;2024-03-25T03:54:54;7.70;99.90
21582;DHT22;10952;50.836;4.348;2024-03-25T03:57:21;7.70;99.90
21582;DHT22;10952;50.836;4.348;2024-03-25T03:59:50;7.70;99.90
21582;DHT22;10952;50.836;4.348;2024-03-25T04:02:20;7.70;99.90
21582;DHT22;10952;50.836;4.348;2024-03-25T04:04:49;7.80;99.90
21582;DHT22;10952;50.836;4.348;2024-03-25T04:07:17;7.90;99.90
21582;DHT22;10952;50.836;4.348;2024-03-25T04:09:43;7.80;99.90
21582;DHT22;10952;50.836;4.348;2024-03-25T04:12:10;7.80;99.90
21582;DHT22;10952;50.836;4.348;2024-03-25T04:14:36;7.70;99.90
21582;DHT22;10952;50.836;4.348;2024-03-25T04:17:02;7.70;99.90
21582;DHT22;10952;50.836;4.348;2024-03-25T04:19:30;7.70;99.90
21582;DHT22;10952;50.836;4.348;2024-03-25T04:21:56;7.60;99.90
21582;DHT22;10952;50.836;4.348;2024-03-25T04:24:26;7.60;99.90
21582;DHT22;10952;50.836;4.348;2024-03-25T04:26:54;7.60;99.90
21582;DHT22;10952;50.836;4.348;2024-03-25T04:29:20;7.60;99.90
21582;DHT22;10952;50.836;4.348;2024-03-25T04:31:47;7.60;99.90
21582;DHT22;10952;50.836;4.348;2024-03-25T04:34:15;7.60;99.90
21582;DHT22;10952;50.836;4.348;2024-03-25T04:36:41;7.50;99.90
21582;DHT22;10952;50.836;4.348;2024-03-25T04:39:26;7.50;99.90
21582;DHT22;10952;50.836;4.348;2024-03-25T04:41:51;7.40;99.90
21582;DHT22;10952;50.836;4.348;2024-03-25T04:44:17;7.40;99.90
21582;DHT22;10952;50.836;4.348;2024-03-25T04:46:44;7.40;99.90
21582;DHT22;10952;50.836;4.348;2024-03-25T04:49:11;7.40;99.90
21582;DHT22;10952;50.836;4.348;2024-03-25T04:51:40;7.40;99.90
21582;DHT22;10952;50.836;4.348;2024-03-25T04:54:06;7.40;99.90
21582;DHT22;10952;50.836;4.348;2024-03-25T04:56:34;7.40;99.90
21582;DHT22;10952;50.836;4.348;2024-03-25T04:59:00;7.40;99.90
21582;DHT22;10952;50.836;4.348;2024-03-25T05:01:28;7.40;99.90
21582;DHT22;10952;50.836;4.348;2024-03-25T05:03:54;7.40;99.90
21582;DHT22;10952;50.836;4.348;2024-03-25T05:06:21;7.40;99.90
21582;DHT22;10952;50.836;4.348;2024-03-25T05:08:46;7.30;99.90
21582;DHT22;10952;50.836;4.348;2024-03-25T05:11:16;7.30;99.90
21582;DHT22;10952;50.836;4.348;2024-03-25T05:13:42;7.30;99.90
21582;DHT22;10952;50.836;4.348;2024-03-25T05:16:11;7.40;99.90
21582;DHT22;10952;50.836;4.348;2024-03-25T05:18:39;7.40;99.90
21582;DHT22;10952;50.836;4.348;2024-03-25T05:21:06;7.40;99.90
21582;DHT22;10952;50.836;4.348;2024-03-25T05:23:35;7.50;99.90
21582;DHT22;10952;50.836;4.348;2024-03-25T05:26:02;7.40;99.90
21582;DHT22;10952;50.836;4.348;2024-03-25T05:28:31;7.40;99.90
21582;DHT22;10952;50.836;4.348;2024-03-25T05:31:08;7.40;99.90
21582;DHT22;10952;50.836;4.348;2024-03-25T05:33:36;7.40;99.90
21582;DHT22;10952;50.836;4.348;2024-03-25T05:36:03;7.30;99.90
21582;DHT22;10952;50.836;4.348;2024-03-25T05:38:29;7.30;99.90
21582;DHT22;10952;50.836;4.348;2024-03-25T05:40:56;7.30;99.90
21582;DHT22;10952;50.836;4.348;2024-03-25T05:43:24;7.30;99.90
21582;DHT22;10952;50.836;4.348;2024-03-25T05:45:53;7.30;99.90
21582;DHT22;10952;50.836;4.348;2024-03-25T05:48:20;7.30;99.90
21582;DHT22;10952;50.836;4.348;2024-03-25T05:51:08;7.30;99.90
21582;DHT22;10952;50.836;4.348;2024-03-25T05:53:35;7.30;99.90
21582;DHT22;10952;50.836;4.348;2024-03-25T05:56:01;7.40;99.90
21582;DHT22;10952;50.836;4.348;2024-03-25T05:58:32;7.40;99.90
21582;DHT22;10952;50.836;4.348;2024-03-25T06:00:58;7.50;99.90
21582;DHT22;10952;50.836;4.348;2024-03-25T06:03:26;7.60;99.90
21582;DHT22;10952;50.836;4.348;2024-03-25T06:05:52;7.70;99.90
21582;DHT22;10952;50.836;4.348;2024-03-25T06:08:18;7.80;99.90
21582;DHT22;10952;50.836;4.348;2024-03-25T06:10:51;7.80;99.90
21582;DHT22;10952;50.836;4.348;2024-03-25T06:13:17;7.90;99.90
21582;DHT22;10952;50.836;4.348;2024-03-25T06:15:43;7.90;99.90
21582;DHT22;10952;50.836;4.348;2024-03-25T06:18:10;8.00;99.90
21582;DHT22;10952;50.836;4.348;2024-03-25T06:20:36;8.00;99.90
21582;DHT22;10952;50.836;4.348;2024-03-25T06:23:01;8.00;99.90
21582;DHT22;10952;50.836;4.348;2024-03-25T06:25:27;8.10;99.90
21582;DHT22;10952;50.836;4.348;2024-03-25T06:27:55;8.10;99.90
21582;DHT22;10952;50.836;4.348;2024-03-25T06:30:21;8.10;99.90
21582;DHT22;10952;50.836;4.348;2024-03-25T06:33:05;8.10;99.90
21582;DHT22;10952;50.836;4.348;2024-03-25T06:35:49;8.20;99.90
21582;DHT22;10952;50.836;4.348;2024-03-25T06:38:15;8.20;99.90
21582;DHT22;10952;50.836;4.348;2024-03-25T06:40:41;8.20;99.90
21582;DHT22;10952;50.836;4.348;2024-03-25T06:43:07;8.40;99.90
21582;DHT22;10952;50.836;4.348;2024-03-25T06:45:34;8.40;99.90
21582;DHT22;10952;50.836;4.348;2024-03-25T06:48:00;8.50;99.90
21582;DHT22;10952;50.836;4.348;2024-03-25T06:50:26;8.50;99.90
21582;DHT22;10952;50.836;4.348;2024-03-25T06:52:52;8.70;99.90
21582;DHT22;10952;50.836;4.348;2024-03-25T06:55:18;8.60;99.90
21582;DHT22;10952;50.836;4.348;2024-03-25T06:57:49;8.70;99.90
21582;DHT22;10952;50.836;4.348;2024-03-25T07:00:15;8.80;99.90
21582;DHT22;10952;50.836;4.348;2024-03-25T07:02:40;8.80;99.90
21582;DHT22;10952;50.836;4.348;2024-03-25T07:05:07;8.80;99.90
21582;DHT22;10952;50.836;4.348;2024-03-25T07:07:33;8.80;99.90
21582;DHT22;10952;50.836;4.348;2024-03-25T07:10:00;8.60;99.90
21582;DHT22;10952;50.836;4.348;2024-03-25T07:12:26;8.50;99.90
21582;DHT22;10952;50.836;4.348;2024-03-25T07:14:51;8.60;99.90
21582;DHT22;10952;50.836;4.348;2024-03-25T07:17:17;8.60;99.90
21582;DHT22;10952;50.836;4.348;2024-03-25T07:19:42;8.60;99.90
21582;DHT22;10952;50.836;4.348;2024-03-25T07:22:09;8.70;99.90
21582;DHT22;10952;50.836;4.348;2024-03-25T07:24:35;8.80;99.90
21582;DHT22;10952;50.836;4.348;2024-03-25T07:27:02;8.80;99.90
21582;DHT22;10952;50.836;4.348;2024-03-25T07:29:28;9.00;99.90
21582;DHT22;10952;50.836;4.348;2024-03-25T07:31:54;9.10;99.90
21582;DHT22;10952;50.836;4.348;2024-03-25T07:34:20;9.10;99.90
21582;DHT22;10952;50.836;4.348;2024-03-25T07:36:46;9.10;99.90
21582;DHT22;10952;50.836;4.348;2024-03-25T07:39:15;9.20;99.90
21582;DHT22;10952;50.836;4.348;2024-03-25T07:41:40;9.20;99.90
21582;DHT22;10952;50.836;4.348;2024-03-25T07:44:06;9.20;99.90
21582;DHT22;10952;50.836;4.348;2024-03-25T07:46:33;9.30;99.90
21582;DHT22;10952;50.836;4.348;2024-03-25T07:48:58;9.40;99.90
21582;DHT22;10952;50.836;4.348;2024-03-25T07:51:24;9.40;99.90
21582;DHT22;10952;50.836;4.348;2024-03-25T07:53:50;9.50;99.90
21582;DHT22;10952;50.836;4.348;2024-03-25T07:56:16;9.60;99.90
21582;DHT22;10952;50.836;4.348;2024-03-25T07:58:42;9.70;99.90
21582;DHT22;10952;50.836;4.348;2024-03-25T08:01:07;9.70;99.90
21582;DHT22;10952;50.836;4.348;2024-03-25T08:03:33;9.60;99.90
21582;DHT22;10952;50.836;4.348;2024-03-25T08:05:59;9.60;99.90
21582;DHT22;10952;50.836;4.348;2024-03-25T08:08:25;9.60;99.90
21582;DHT22;10952;50.836;4.348;2024-03-25T08:10:50;9.60;99.90
21582;DHT22;10952;50.836;4.348;2024-03-25T08:13:18;9.70;99.90
21582;DHT22;10952;50.836;4.348;2024-03-25T08:15:45;9.80;99.90
21582;DHT22;10952;50.836;4.348;2024-03-25T08:18:11;9.80;99.90
21582;DHT22;10952;50.836;4.348;2024-03-25T08:20:37;9.60;99.90
21582;DHT22;10952;50.836;4.348;2024-03-25T08:23:04;9.50;99.90
21582;DHT22;10952;50.836;4.348;2024-03-25T08:25:31;9.50;99.90
21582;DHT22;10952;50.836;4.348;2024-03-25T08:27:57;9.50;99.90
21582;DHT22;10952;50.836;4.348;2024-03-25T08:30:25;9.60;99.90
21582;DHT22;10952;50.836;4.348;2024-03-25T08:32:51;9.70;99.90
21582;DHT22;10952;50.836;4.348;2024-03-25T08:35:18;9.70;99.90
21582;DHT22;10952;50.836;4.348;2024-03-25T08:37:46;9.70;99.90
21582;DHT22;10952;50.836;4.348;2024-03-25T08:40:12;9.80;99.90
21582;DHT22;10952;50.836;4.348;2024-03-25T08:42:38;9.90;99.90
21582;DHT22;10952;50.836;4.348;2024-03-25T08:45:03;10.00;99.90
21582;DHT22;10952;50.836;4.348;2024-03-25T08:47:29;9.90;99.90
21582;DHT22;10952;50.836;4.348;2024-03-25T08:49:55;9.90;99.90
21582;DHT22;10952;50.836;4.348;2024-03-25T08:52:22;10.00;99.90
21582;DHT22;10952;50.836;4.348;2024-03-25T08:54:47;10.10;99.90
21582;DHT22;10952;50.836;4.348;2024-03-25T08:57:13;10.10;99.90
21582;DHT22;10952;50.836;4.348;2024-03-25T08:59:40;10.10;99.90
21582;DHT22;10952;50.836;4.348;2024-03-25T09:02:06;10.20;99.90
21582;DHT22;10952;50.836;4.348;2024-03-25T09:04:33;10.30;99.90
21582;DHT22;10952;50.836;4.348;2024-03-25T09:06:59;10.40;99.90
21582;DHT22;10952;50.836;4.348;2024-03-25T09:09:31;10.30;99.90
21582;DHT22;10952;50.836;4.348;2024-03-25T09:12:16;10.40;99.90
21582;DHT22;10952;50.836;4.348;2024-03-25T09:14:43;10.40;99.90
21582;DHT22;10952;50.836;4.348;2024-03-25T09:17:09;10.40;99.90
21582;DHT22;10952;50.836;4.348;2024-03-25T09:19:36;10.40;99.90
21582;DHT22;10952;50.836;4.348;2024-03-25T09:22:02;10.30;99.90
21582;DHT22;10952;50.836;4.348;2024-03-25T09:24:27;10.40;99.90
21582;DHT22;10952;50.836;4.348;2024-03-25T09:26:54;10.50;99.90
21582;DHT22;10952;50.836;4.348;2024-03-25T09:29:19;10.50;99.90
21582;DHT22;10952;50.836;4.348;2024-03-25T09:31:45;10.60;99.90
21582;DHT22;10952;50.836;4.348;2024-03-25T09:34:11;10.60;99.90
21582;DHT22;10952;50.836;4.348;2024-03-25T09:36:37;10.60;99.90
21582;DHT22;10952;50.836;4.348;2024-03-25T09:39:02;10.70;99.90
21582;DHT22;10952;50.836;4.348;2024-03-25T09:41:30;10.80;99.90
21582;DHT22;10952;50.836;4.348;2024-03-25T09:44:00;10.80;99.90
21582;DHT22;10952;50.836;4.348;2024-03-25T09:46:26;10.90;99.90
21582;DHT22;10952;50.836;4.348;2024-03-25T09:48:53;10.90;99.90
21582;DHT22;10952;50.836;4.348;2024-03-25T09:51:19;11.00;99.90
21582;DHT22;10952;50.836;4.348;2024-03-25T09:53:45;11.20;99.90
21582;DHT22;10952;50.836;4.348;2024-03-25T09:56:13;11.20;99.90
21582;DHT22;10952;50.836;4.348;2024-03-25T09:58:40;11.40;99.90
21582;DHT22;10952;50.836;4.348;2024-03-25T10:01:06;11.40;99.90
21582;DHT22;10952;50.836;4.348;2024-03-25T10:03:32;11.20;99.90
21582;DHT22;10952;50.836;4.348;2024-03-25T10:05:58;11.30;99.90
21582;DHT22;10952;50.836;4.348;2024-03-25T10:08:23;11.50;99.90
21582;DHT22;10952;50.836;4.348;2024-03-25T10:10:55;11.70;99.90
21582;DHT22;10952;50.836;4.348;2024-03-25T10:13:22;11.70;99.90
21582;DHT22;10952;50.836;4.348;2024-03-25T10:15:48;11.70;99.90
21582;DHT22;10952;50.836;4.348;2024-03-25T10:18:17;11.80;99.90
21582;DHT22;10952;50.836;4.348;2024-03-25T10:20:52;11.80;99.90
21582;DHT22;10952;50.836;4.348;2024-03-25T10:23:23;11.90;99.90
21582;DHT22;10952;50.836;4.348;2024-03-25T10:25:51;12.10;99.90
21582;DHT22;10952;50.836;4.348;2024-03-25T10:28:17;12.10;99.90
21582;DHT22;10952;50.836;4.348;2024-03-25T10:30:42;12.20;99.90
21582;DHT22;10952;50.836;4.348;2024-03-25T10:33:08;12.40;99.90
21582;DHT22;10952;50.836;4.348;2024-03-25T10:35:38;12.60;99.90
21582;DHT22;10952;50.836;4.348;2024-03-25T10:38:11;12.60;99.90
21582;DHT22;10952;50.836;4.348;2024-03-25T10:40:40;12.60;99.90
21582;DHT22;10952;50.836;4.348;2024-03-25T10:43:10;12.80;99.90
21582;DHT22;10952;50.836;4.348;2024-03-25T10:45:50;12.90;99.90
21582;DHT22;10952;50.836;4.348;2024-03-25T10:48:27;12.90;99.90
21582;DHT22;10952;50.836;4.348;2024-03-25T10:51:01;13.10;99.90
21582;DHT22;10952;50.836;4.348;2024-03-25T10:53:29;13.10;99.90
21582;DHT22;10952;50.836;4.348;2024-03-25T10:55:56;13.20;99.90
21582;DHT22;10952;50.836;4.348;2024-03-25T10:58:22;13.40;99.90
21582;DHT22;10952;50.836;4.348;2024-03-25T11:00:51;13.60;99.90
21582;DHT22;10952;50.836;4.348;2024-03-25T11:03:17;14.00;99.90
21582;DHT22;10952;50.836;4.348;2024-03-25T11:05:44;14.30;99.90
21582;DHT22;10952;50.836;4.348;2024-03-25T11:08:11;14.80;99.90
21582;DHT22;10952;50.836;4.348;2024-03-25T11:10:44;16.10;99.90
21582;DHT22;10952;50.836;4.348;2024-03-25T11:13:13;17.40;99.90
21582;DHT22;10952;50.836;4.348;2024-03-25T11:15:45;18.70;99.90
21582;DHT22;10952;50.836;4.348;2024-03-25T11:18:24;19.90;99.90
21582;DHT22;10952;50.836;4.348;2024-03-25T11:21:05;21.50;97.40
21582;DHT22;10952;50.836;4.348;2024-03-25T11:23:41;22.40;93.30
21582;DHT22;10952;50.836;4.348;2024-03-25T11:26:19;22.40;90.90
21582;DHT22;10952;50.836;4.348;2024-03-25T11:28:45;22.30;89.70
21582;DHT22;10952;50.836;4.348;2024-03-25T11:31:11;21.80;87.00
21582;DHT22;10952;50.836;4.348;2024-03-25T11:33:38;21.40;87.60
21582;DHT22;10952;50.836;4.348;2024-03-25T11:36:05;21.90;86.60
21582;DHT22;10952;50.836;4.348;2024-03-25T11:38:30;23.00;84.10
21582;DHT22;10952;50.836;4.348;2024-03-25T11:40:57;24.10;82.00
21582;DHT22;10952;50.836;4.348;2024-03-25T11:43:24;23.90;77.20
21582;DHT22;10952;50.836;4.348;2024-03-25T11:45:50;23.60;75.70
21582;DHT22;10952;50.836;4.348;2024-03-25T11:48:17;23.40;73.80
21582;DHT22;10952;50.836;4.348;2024-03-25T11:50:46;23.00;72.30
21582;DHT22;10952;50.836;4.348;2024-03-25T11:53:15;21.80;74.10
21582;DHT22;10952;50.836;4.348;2024-03-25T11:55:45;22.10;75.20
21582;DHT22;10952;50.836;4.348;2024-03-25T11:58:11;21.40;76.10
21582;DHT22;10952;50.836;4.348;2024-03-25T12:00:46;20.30;78.30
21582;DHT22;10952;50.836;4.348;2024-03-25T12:03:17;18.80;80.10
21582;DHT22;10952;50.836;4.348;2024-03-25T12:05:46;17.70;83.30
21582;DHT22;10952;50.836;4.348;2024-03-25T12:08:11;17.00;85.60
21582;DHT22;10952;50.836;4.348;2024-03-25T12:10:39;16.60;87.90
21582;DHT22;10952;50.836;4.348;2024-03-25T12:13:25;16.70;89.80
21582;DHT22;10952;50.836;4.348;2024-03-25T12:15:53;16.40;91.00
21582;DHT22;10952;50.836;4.348;2024-03-25T12:18:20;16.30;91.70
21582;DHT22;10952;50.836;4.348;2024-03-25T12:20:45;16.10;92.50
21582;DHT22;10952;50.836;4.348;2024-03-25T12:23:11;15.60;92.40
21582;DHT22;10952;50.836;4.348;2024-03-25T12:25:37;15.30;93.20
21582;DHT22;10952;50.836;4.348;2024-03-25T12:28:08;15.30;92.90
21582;DHT22;10952;50.836;4.348;2024-03-25T12:30:50;15.10;92.90
21582;DHT22;10952;50.836;4.348;2024-03-25T12:33:16;15.10;92.50
21582;DHT22;10952;50.836;4.348;2024-03-25T12:35:45;15.20;92.80
21582;DHT22;10952;50.836;4.348;2024-03-25T12:38:24;15.20;92.30
21582;DHT22;10952;50.836;4.348;2024-03-25T12:41:04;15.30;92.90
21582;DHT22;10952;50.836;4.348;2024-03-25T12:43:41;15.40;92.30
21582;DHT22;10952;50.836;4.348;2024-03-25T12:46:07;15.60;92.80
21582;DHT22;10952;50.836;4.348;2024-03-25T12:48:36;15.80;92.40
21582;DHT22;10952;50.836;4.348;2024-03-25T12:51:02;15.70;93.00
21582;DHT22;10952;50.836;4.348;2024-03-25T12:53:27;15.70;92.50
21582;DHT22;10952;50.836;4.348;2024-03-25T12:55:54;15.90;92.10
21582;DHT22;10952;50.836;4.348;2024-03-25T12:58:19;16.60;91.00
21582;DHT22;10952;50.836;4.348;2024-03-25T13:00:46;17.10;90.10
21582;DHT22;10952;50.836;4.348;2024-03-25T13:03:13;17.40;89.60
21582;DHT22;10952;50.836;4.348;2024-03-25T13:05:43;17.60;88.10
21582;DHT22;10952;50.836;4.348;2024-03-25T13:08:08;17.10;88.40
21582;DHT22;10952;50.836;4.348;2024-03-25T13:10:38;16.60;89.40
21582;DHT22;10952;50.836;4.348;2024-03-25T13:13:03;16.40;90.00
21582;DHT22;10952;50.836;4.348;2024-03-25T13:15:31;16.70;90.20
21582;DHT22;10952;50.836;4.348;2024-03-25T13:17:57;17.10;89.90
21582;DHT22;10952;50.836;4.348;2024-03-25T13:20:22;17.20;88.50
21582;DHT22;10952;50.836;4.348;2024-03-25T13:22:49;17.10;88.00
21582;DHT22;10952;50.836;4.348;2024-03-25T13:25:18;16.80;87.90
21582;DHT22;10952;50.836;4.348;2024-03-25T13:27:44;16.20;88.30
21582;DHT22;10952;50.836;4.348;2024-03-25T13:30:10;15.70;89.50
21582;DHT22;10952;50.836;4.348;2024-03-25T13:32:35;15.50;90.30
21582;DHT22;10952;50.836;4.348;2024-03-25T13:35:01;15.20;90.60
21582;DHT22;10952;50.836;4.348;2024-03-25T13:37:27;14.80;90.70
21582;DHT22;10952;50.836;4.348;2024-03-25T13:39:52;14.70;91.00
21582;DHT22;10952;50.836;4.348;2024-03-25T13:42:18;14.50;91.70
21582;DHT22;10952;50.836;4.348;2024-03-25T13:44:44;14.50;91.50
21582;DHT22;10952;50.836;4.348;2024-03-25T13:47:10;14.70;91.70
21582;DHT22;10952;50.836;4.348;2024-03-25T13:49:38;14.90;91.30
21582;DHT22;10952;50.836;4.348;2024-03-25T13:52:05;14.80;91.30
21582;DHT22;10952;50.836;4.348;2024-03-25T13:54:31;15.10;91.50
21582;DHT22;10952;50.836;4.348;2024-03-25T13:56:59;15.30;91.20
21582;DHT22;10952;50.836;4.348;2024-03-25T13:59:24;15.60;91.70
21582;DHT22;10952;50.836;4.348;2024-03-25T14:01:50;15.90;91.10
21582;DHT22;10952;50.836;4.348;2024-03-25T14:04:17;15.90;90.60
21582;DHT22;10952;50.836;4.348;2024-03-25T14:06:43;15.40;90.90
21582;DHT22;10952;50.836;4.348;2024-03-25T14:09:32;15.30;91.40
21582;DHT22;10952;50.836;4.348;2024-03-25T14:11:57;15.30;91.60
21582;DHT22;10952;50.836;4.348;2024-03-25T14:14:22;15.60;91.10
21582;DHT22;10952;50.836;4.348;2024-03-25T14:16:48;15.90;91.40
21582;DHT22;10952;50.836;4.348;2024-03-25T14:19:14;15.90;91.60
21582;DHT22;10952;50.836;4.348;2024-03-25T14:21:39;16.00;92.60
21582;DHT22;10952;50.836;4.348;2024-03-25T14:24:07;15.70;91.60
21582;DHT22;10952;50.836;4.348;2024-03-25T14:26:34;15.60;91.60
21582;DHT22;10952;50.836;4.348;2024-03-25T14:29:00;15.30;92.10
21582;DHT22;10952;50.836;4.348;2024-03-25T14:31:26;15.50;91.80
21582;DHT22;10952;50.836;4.348;2024-03-25T14:33:52;15.40;91.60
21582;DHT22;10952;50.836;4.348;2024-03-25T14:36:17;15.30;92.10
21582;DHT22;10952;50.836;4.348;2024-03-25T14:38:43;15.40;91.50
21582;DHT22;10952;50.836;4.348;2024-03-25T14:41:11;15.60;91.10
21582;DHT22;10952;50.836;4.348;2024-03-25T14:43:39;15.50;91.00
21582;DHT22;10952;50.836;4.348;2024-03-25T14:46:05;15.50;91.10
21582;DHT22;10952;50.836;4.348;2024-03-25T14:48:31;15.40;91.20
21582;DHT22;10952;50.836;4.348;2024-03-25T14:50:59;15.10;91.60
21582;DHT22;10952;50.836;4.348;2024-03-25T14:53:25;15.00;91.80
21582;DHT22;10952;50.836;4.348;2024-03-25T14:55:51;14.90;92.00
21582;DHT22;10952;50.836;4.348;2024-03-25T14:58:17;14.90;92.10
21582;DHT22;10952;50.836;4.348;2024-03-25T15:00:43;14.90;91.80
21582;DHT22;10952;50.836;4.348;2024-03-25T15:03:10;15.00;91.80
21582;DHT22;10952;50.836;4.348;2024-03-25T15:05:37;15.20;92.50
21582;DHT22;10952;50.836;4.348;2024-03-25T15:08:03;15.00;92.30
21582;DHT22;10952;50.836;4.348;2024-03-25T15:10:33;15.10;92.70
21582;DHT22;10952;50.836;4.348;2024-03-25T15:12:59;15.20;92.80
21582;DHT22;10952;50.836;4.348;2024-03-25T15:15:25;15.40;92.70
21582;DHT22;10952;50.836;4.348;2024-03-25T15:17:50;15.50;92.20
21582;DHT22;10952;50.836;4.348;2024-03-25T15:20:20;15.30;92.30
21582;DHT22;10952;50.836;4.348;2024-03-25T15:22:45;15.40;92.20
21582;DHT22;10952;50.836;4.348;2024-03-25T15:25:11;15.40;91.40
21582;DHT22;10952;50.836;4.348;2024-03-25T15:27:37;15.50;91.30
21582;DHT22;10952;50.836;4.348;2024-03-25T15:30:07;15.50;91.20
21582;DHT22;10952;50.836;4.348;2024-03-25T15:32:33;15.40;91.10
21582;DHT22;10952;50.836;4.348;2024-03-25T15:34:59;15.20;91.00
21582;DHT22;10952;50.836;4.348;2024-03-25T15:37:24;15.10;91.10
21582;DHT22;10952;50.836;4.348;2024-03-25T15:39:50;15.20;92.20
21582;DHT22;10952;50.836;4.348;2024-03-25T15:42:16;15.30;93.00